Time;durP1;ratioP1;P1;durP2;ratioP2;P2;SDS_P1;SDS_P2;PMS_P1;PMS_P2;Temp;Humidity;BMP_temperature;BMP_pressure;BME280_temperature;BME280_humidity;BME280_pressure;Samples;Min_cycle;Max_cycle;Signal;HPM_P1;HPM_P2
2023/09/14 00:02:30;;;;;;;1.77;1.50;;;23.50;67.20;;;;;;5036381;28;20467;-73
2023/09/14 00:05:18;;;;;;;2.30;1.27;;;23.50;67.20;;;;;;5034462;28;20454;-73
2023/09/14 00:08:05;;;;;;;1.40;1.00;;;23.50;67.20;;;;;;5026549;28;20451;-74
2023/09/14 00:10:56;;;;;;;1.73;1.50;;;23.50;67.30;;;;;;5040730;28;20489;-73
2023/09/14 00:13:43;;;;;;;1.80;1.20;;;23.50;67.30;;;;;;5041095;28;20438;-73
2023/09/14 00:16:30;;;;;;;2.70;1.30;;;23.50;67.30;;;;;;5026773;28;20487;-74
2023/09/14 00:19:18;;;;;;;1.53;1.10;;;23.50;67.30;;;;;;5033560;28;21064;-73
2023/09/14 00:22:06;;;;;;;1.57;1.27;;;23.50;67.20;;;;;;5034199;28;20490;-73
2023/09/14 00:24:53;;;;;;;3.20;1.57;;;23.50;67.20;;;;;;5047954;28;20816;-73
2023/09/14 00:27:40;;;;;;;1.90;1.30;;;23.50;67.20;;;;;;5028435;28;20439;-73
2023/09/14 00:30:27;;;;;;;1.90;1.07;;;23.50;67.30;;;;;;5025085;28;20463;-73
2023/09/14 00:33:14;;;;;;;1.37;1.00;;;23.50;67.20;;;;;;5032568;28;20443;-73
2023/09/14 00:36:01;;;;;;;1.30;1.20;;;23.50;67.30;;;;;;5043670;28;20471;-73
2023/09/14 00:38:49;;;;;;;2.00;1.60;;;23.50;67.20;;;;;;5029610;28;20459;-73
2023/09/14 00:41:36;;;;;;;1.63;1.40;;;23.50;67.30;;;;;;5038756;28;20475;-72
2023/09/14 00:44:23;;;;;;;1.10;0.93;;;23.50;67.20;;;;;;5035455;28;20423;-72
2023/09/14 00:47:11;;;;;;;1.60;1.30;;;23.40;67.10;;;;;;5053543;28;20493;-73
2023/09/14 00:49:58;;;;;;;1.67;0.90;;;23.40;67.20;;;;;;5030860;28;20530;-73
2023/09/14 00:52:48;;;;;;;2.30;1.10;;;23.40;67.10;;;;;;5034321;28;20424;-74
2023/09/14 00:55:37;;;;;;;1.87;1.30;;;23.40;67.20;;;;;;5030897;28;20471;-73
2023/09/14 00:58:24;;;;;;;1.40;1.17;;;23.40;67.10;;;;;;5039351;28;20928;-73
2023/09/14 01:01:14;;;;;;;1.40;1.00;;;23.40;67.20;;;;;;5023152;28;20478;-73
2023/09/14 01:04:02;;;;;;;1.63;1.17;;;23.40;67.20;;;;;;5026510;28;20443;-73
2023/09/14 01:06:50;;;;;;;1.30;0.90;;;23.40;67.20;;;;;;5041327;28;20493;-72
2023/09/14 01:09:37;;;;;;;1.60;1.30;;;23.40;67.20;;;;;;5032392;28;20962;-73
2023/09/14 01:12:26;;;;;;;1.40;1.00;;;23.40;67.10;;;;;;5039165;28;20459;-73
2023/09/14 01:15:19;;;;;;;1.90;1.30;;;23.40;67.10;;;;;;5030462;28;20450;-73
2023/09/14 01:18:12;;;;;;;1.53;1.10;;;23.30;67.00;;;;;;5025803;28;20575;-73
2023/09/14 01:21:33;;;;;;;2.13;1.10;;;23.30;67.10;;;;;;5037135;28;20885;-73
2023/09/14 01:24:29;;;;;;;1.53;1.07;;;23.40;67.10;;;;;;5016608;28;21194;-73
2023/09/14 01:27:18;;;;;;;1.30;1.13;;;23.30;67.10;;;;;;5027983;28;20532;-73
2023/09/14 01:30:06;;;;;;;1.60;1.30;;;23.30;67.10;;;;;;5042022;28;20802;-73
2023/09/14 01:32:53;;;;;;;2.30;1.20;;;23.30;67.00;;;;;;5028540;28;20495;-73
2023/09/14 01:35:47;;;;;;;1.97;1.00;;;23.30;67.00;;;;;;5029368;28;20466;-74
2023/09/14 01:38:36;;;;;;;1.50;1.30;;;23.30;67.10;;;;;;5037992;28;20449;-73
2023/09/14 01:41:25;;;;;;;1.90;1.17;;;23.30;67.00;;;;;;5039300;28;20528;-73
2023/09/14 01:44:14;;;;;;;1.83;1.43;;;23.30;67.10;;;;;;5030543;28;20796;-73
2023/09/14 01:47:01;;;;;;;1.40;1.07;;;23.30;67.00;;;;;;5035948;28;20476;-73
2023/09/14 01:49:49;;;;;;;1.37;1.07;;;23.30;67.10;;;;;;5033837;28;20478;-73
2023/09/14 01:52:36;;;;;;;1.70;1.37;;;23.30;67.10;;;;;;5031457;28;20458;-73
2023/09/14 01:55:23;;;;;;;1.60;1.40;;;23.20;66.90;;;;;;5042932;28;20443;-74
2023/09/14 01:58:12;;;;;;;1.33;1.17;;;23.30;67.10;;;;;;5033306;28;20553;-73
2023/09/14 02:01:00;;;;;;;1.70;1.27;;;23.20;66.90;;;;;;5031694;28;20453;-73
2023/09/14 02:03:47;;;;;;;1.60;1.03;;;23.20;66.90;;;;;;5035729;28;20497;-73
2023/09/14 02:06:34;;;;;;;1.63;1.40;;;23.20;66.90;;;;;;5034108;28;20478;-73
2023/09/14 02:09:21;;;;;;;1.50;0.93;;;23.20;66.90;;;;;;5047851;28;20446;-73
2023/09/14 02:12:08;;;;;;;1.97;1.07;;;23.20;67.00;;;;;;5037477;28;20522;-73
2023/09/14 02:14:55;;;;;;;1.37;1.10;;;23.20;66.90;;;;;;5035534;28;20454;-73
2023/09/14 02:17:43;;;;;;;1.33;0.90;;;23.20;67.00;;;;;;5051002;28;20815;-73
2023/09/14 02:20:30;;;;;;;1.97;1.43;;;23.20;66.90;;;;;;5038430;28;20470;-73
2023/09/14 02:23:18;;;;;;;1.80;1.40;;;23.20;66.90;;;;;;5044605;28;20862;-73
2023/09/14 02:26:06;;;;;;;1.47;1.13;;;23.20;66.90;;;;;;5037856;28;20840;-73
2023/09/14 02:28:53;;;;;;;1.83;1.10;;;23.20;66.90;;;;;;5035387;28;20475;-73
2023/09/14 02:31:40;;;;;;;1.40;1.10;;;23.20;67.00;;;;;;5043649;28;20474;-72
2023/09/14 02:34:28;;;;;;;1.90;1.40;;;23.10;66.80;;;;;;5030873;28;20445;-73
2023/09/14 02:37:17;;;;;;;1.80;1.10;;;23.10;66.80;;;;;;5031666;28;20537;-72
2023/09/14 02:40:06;;;;;;;1.30;1.00;;;23.20;66.90;;;;;;5033863;28;20451;-73
2023/09/14 02:42:52;;;;;;;1.80;1.03;;;23.10;66.80;;;;;;5032517;28;21037;-72
2023/09/14 02:45:40;;;;;;;1.30;1.00;;;23.10;66.80;;;;;;5035194;28;20511;-73
2023/09/14 02:48:27;;;;;;;1.90;1.27;;;23.10;66.80;;;;;;5039090;28;20673;-73
2023/09/14 02:51:15;;;;;;;1.53;1.20;;;23.10;66.80;;;;;;5036932;28;21021;-73
2023/09/14 02:54:02;;;;;;;2.20;1.30;;;23.10;66.80;;;;;;5050848;28;20445;-74
2023/09/14 02:56:49;;;;;;;1.73;1.10;;;23.10;66.90;;;;;;5040958;28;20857;-73
2023/09/14 02:59:39;;;;;;;1.93;1.03;;;23.00;66.70;;;;;;5041937;28;20494;-74
2023/09/14 03:02:27;;;;;;;1.40;1.03;;;23.00;66.70;;;;;;5044184;28;20467;-73
2023/09/14 03:05:15;;;;;;;1.43;1.10;;;23.00;66.70;;;;;;5037413;28;20455;-73
2023/09/14 03:08:04;;;;;;;1.50;1.13;;;23.00;66.70;;;;;;5035501;28;20450;-73
2023/09/14 03:10:52;;;;;;;2.97;1.20;;;23.00;66.80;;;;;;5027504;28;20494;-73
2023/09/14 03:13:39;;;;;;;3.63;1.20;;;23.00;66.80;;;;;;5039360;28;20493;-73
2023/09/14 03:16:27;;;;;;;1.43;1.00;;;23.00;66.70;;;;;;5034510;28;20463;-73
2023/09/14 03:19:14;;;;;;;1.40;0.97;;;23.00;66.70;;;;;;5039462;28;20514;-73
2023/09/14 03:22:01;;;;;;;2.47;1.37;;;23.00;66.70;;;;;;5038672;28;21023;-73
2023/09/14 03:24:50;;;;;;;2.27;1.20;;;23.00;68.00;;;;;;5040104;28;20786;-73
2023/09/14 03:27:38;;;;;;;1.90;1.13;;;23.00;66.80;;;;;;5040642;28;20847;-73
2023/09/14 03:30:26;;;;;;;1.23;0.93;;;23.00;66.70;;;;;;5032138;28;20455;-73
2023/09/14 03:33:14;;;;;;;1.37;0.97;;;22.90;66.70;;;;;;5029329;28;20431;-73
2023/09/14 03:36:01;;;;;;;1.40;1.03;;;23.00;66.70;;;;;;5036671;28;20606;-73
2023/09/14 03:38:49;;;;;;;1.50;1.23;;;22.90;66.60;;;;;;5036226;28;20447;-73
2023/09/14 03:41:42;;;;;;;1.70;1.10;;;22.90;66.60;;;;;;5033294;28;21005;-73
2023/09/14 03:44:29;;;;;;;1.87;1.20;;;22.90;66.70;;;;;;5037588;28;20446;-73
2023/09/14 03:47:16;;;;;;;1.73;1.20;;;22.90;66.60;;;;;;5033702;28;20471;-74
2023/09/14 03:50:02;;;;;;;3.30;1.23;;;22.90;66.60;;;;;;5035682;28;20476;-73
2023/09/14 03:52:49;;;;;;;1.80;1.10;;;22.90;66.60;;;;;;5045287;28;20443;-73
2023/09/14 03:55:36;;;;;;;1.60;1.00;;;22.90;66.60;;;;;;5029130;28;20559;-73
2023/09/14 03:58:25;;;;;;;2.90;1.20;;;22.90;66.70;;;;;;5036243;28;20469;-73
2023/09/14 04:01:12;;;;;;;1.37;1.03;;;22.90;66.70;;;;;;5030587;28;20470;-73
2023/09/14 04:04:00;;;;;;;2.00;1.40;;;22.90;66.60;;;;;;5048247;28;20516;-73
2023/09/14 04:06:48;;;;;;;1.83;1.30;;;22.90;66.70;;;;;;5039710;28;20479;-73
2023/09/14 04:09:36;;;;;;;2.17;1.20;;;22.80;66.60;;;;;;5037681;28;20450;-73
2023/09/14 04:12:23;;;;;;;1.37;1.20;;;22.90;66.60;;;;;;5026653;28;20467;-73
2023/09/14 04:15:12;;;;;;;1.93;1.40;;;22.80;66.50;;;;;;5052357;28;20505;-73
2023/09/14 04:18:00;;;;;;;1.27;0.80;;;22.80;66.50;;;;;;5050006;28;21014;-73
2023/09/14 04:20:47;;;;;;;2.10;1.40;;;22.80;66.50;;;;;;5040936;28;20632;-73
2023/09/14 04:23:35;;;;;;;1.40;1.20;;;22.80;66.60;;;;;;5035917;28;20537;-73
2023/09/14 04:26:26;;;;;;;1.23;1.00;;;22.80;66.50;;;;;;5037931;28;20832;-73
2023/09/14 04:29:13;;;;;;;1.83;1.30;;;22.80;66.70;;;;;;5033592;28;21010;-73
2023/09/14 04:32:03;;;;;;;1.80;1.23;;;22.80;66.60;;;;;;5030111;28;20459;-73
2023/09/14 04:34:51;;;;;;;1.30;1.10;;;22.80;66.50;;;;;;5039705;28;20450;-73
2023/09/14 04:37:38;;;;;;;2.90;0.87;;;22.80;66.50;;;;;;5032484;28;20465;-73
2023/09/14 04:40:25;;;;;;;2.10;1.50;;;22.80;66.80;;;;;;5032666;28;20462;-73
2023/09/14 04:43:15;;;;;;;1.80;1.20;;;22.80;66.50;;;;;;5031727;28;20990;-73
2023/09/14 04:46:04;;;;;;;2.60;1.30;;;22.80;66.50;;;;;;5027306;28;20899;-73
2023/09/14 04:48:52;;;;;;;1.87;1.47;;;22.80;66.50;;;;;;5032031;28;20828;-74
2023/09/14 04:51:40;;;;;;;1.50;1.20;;;22.70;66.50;;;;;;5036963;28;20549;-74
2023/09/14 04:54:27;;;;;;;1.93;1.30;;;22.70;66.40;;;;;;5033492;28;21051;-73
2023/09/14 04:57:14;;;;;;;3.53;1.57;;;22.70;66.40;;;;;;5030166;28;20483;-73
2023/09/14 05:00:01;;;;;;;1.70;1.13;;;22.70;66.40;;;;;;5048301;28;20486;-73
2023/09/14 05:02:48;;;;;;;1.80;1.30;;;22.70;66.40;;;;;;5028527;28;20455;-73
2023/09/14 05:05:36;;;;;;;3.00;1.30;;;22.70;66.40;;;;;;5029944;28;20590;-73
2023/09/14 05:08:25;;;;;;;1.50;1.20;;;22.70;66.40;;;;;;5035379;28;20521;-73
2023/09/14 05:11:14;;;;;;;1.50;0.93;;;22.70;66.50;;;;;;5035652;28;20918;-72
2023/09/14 05:14:01;;;;;;;2.10;1.30;;;22.70;66.40;;;;;;5029927;28;20587;-72
2023/09/14 05:16:48;;;;;;;1.70;0.93;;;22.60;66.40;;;;;;5025242;28;20622;-73
2023/09/14 05:19:36;;;;;;;1.50;1.37;;;22.70;66.40;;;;;;5033089;28;20470;-73
2023/09/14 05:22:25;;;;;;;1.83;1.10;;;22.70;66.40;;;;;;5040832;28;20516;-73
2023/09/14 05:25:12;;;;;;;1.60;1.20;;;22.60;66.50;;;;;;5041605;28;20998;-73
2023/09/14 05:28:00;;;;;;;1.77;1.07;;;22.60;66.30;;;;;;5031595;28;20467;-73
2023/09/14 05:30:47;;;;;;;2.10;1.13;;;22.60;66.40;;;;;;5030689;28;20472;-73
2023/09/14 05:33:36;;;;;;;1.50;1.00;;;22.60;66.70;;;;;;5011324;28;20865;-73
2023/09/14 05:36:23;;;;;;;1.50;1.33;;;22.60;66.30;;;;;;5032426;28;20894;-73
2023/09/14 05:39:12;;;;;;;1.83;1.27;;;22.60;66.40;;;;;;5027618;28;20451;-73
2023/09/14 05:42:00;;;;;;;2.23;1.63;;;22.60;66.60;;;;;;5035184;28;20677;-73
2023/09/14 05:44:47;;;;;;;1.53;1.30;;;22.60;66.60;;;;;;5053606;28;20442;-73
2023/09/14 05:47:35;;;;;;;2.50;1.70;;;22.50;66.40;;;;;;5032893;28;20479;-73
2023/09/14 05:50:22;;;;;;;6.97;1.67;;;22.60;66.50;;;;;;5032985;28;20470;-73
2023/09/14 05:53:09;;;;;;;2.10;1.63;;;22.50;66.50;;;;;;5040748;28;20612;-73
2023/09/14 05:55:58;;;;;;;2.90;1.80;;;22.50;66.30;;;;;;5027960;28;20474;-71
2023/09/14 05:58:46;;;;;;;2.37;1.63;;;22.50;66.30;;;;;;5033999;28;20867;-69
2023/09/14 06:01:36;;;;;;;2.77;2.50;;;22.50;66.40;;;;;;5027729;28;20478;-70
2023/09/14 06:04:23;;;;;;;2.67;2.23;;;22.50;66.30;;;;;;5025032;28;20459;-70
2023/09/14 06:07:10;;;;;;;2.60;1.53;;;22.50;66.30;;;;;;5035452;28;20508;-69
2023/09/14 06:09:58;;;;;;;2.80;2.00;;;22.50;66.50;;;;;;5039702;28;20459;-70
2023/09/14 06:12:46;;;;;;;2.00;1.37;;;22.50;66.70;;;;;;5030844;28;20467;-70
2023/09/14 06:15:33;;;;;;;3.67;2.03;;;22.50;66.50;;;;;;5025115;28;20466;-70
2023/09/14 06:18:20;;;;;;;2.00;1.40;;;22.50;66.60;;;;;;5031162;28;20979;-70
2023/09/14 06:21:08;;;;;;;2.20;1.50;;;22.40;66.60;;;;;;5032314;28;20470;-69
2023/09/14 06:23:54;;;;;;;2.80;2.30;;;22.40;66.60;;;;;;5028088;28;21014;-68
2023/09/14 06:26:42;;;;;;;1.70;1.43;;;22.40;66.60;;;;;;5031094;28;20537;-69
2023/09/14 06:29:30;;;;;;;2.43;1.60;;;22.40;66.70;;;;;;5032100;28;20471;-70
2023/09/14 06:32:17;;;;;;;3.80;2.60;;;22.40;66.70;;;;;;5046380;28;20486;-70
2023/09/14 06:35:04;;;;;;;3.17;2.20;;;22.40;66.60;;;;;;5027471;28;20812;-69
2023/09/14 06:37:51;;;;;;;2.03;1.50;;;22.40;66.70;;;;;;5029406;28;20443;-70
2023/09/14 06:40:38;;;;;;;2.60;1.90;;;22.40;66.90;;;;;;5030318;28;20609;-70
2023/09/14 06:43:25;;;;;;;2.57;1.87;;;22.40;66.80;;;;;;5031590;28;20791;-70
2023/09/14 06:46:13;;;;;;;3.83;2.70;;;22.40;66.80;;;;;;5037497;28;20459;-68
2023/09/14 06:49:00;;;;;;;2.30;1.80;;;22.30;66.50;;;;;;5029899;28;20463;-69
2023/09/14 06:51:48;;;;;;;3.47;2.93;;;22.30;66.70;;;;;;5033739;28;20632;-69
2023/09/14 06:54:35;;;;;;;3.90;3.50;;;22.30;66.60;;;;;;5034067;28;20451;-69
2023/09/14 06:57:22;;;;;;;6.33;4.80;;;22.30;66.10;;;;;;5034266;28;20552;-69
2023/09/14 07:00:13;;;;;;;5.93;3.90;;;22.30;66.10;;;;;;5041414;28;20459;-69
2023/09/14 07:03:02;;;;;;;5.50;3.43;;;22.30;66.20;;;;;;5035264;28;20837;-69
2023/09/14 07:05:49;;;;;;;4.83;3.87;;;22.20;66.00;;;;;;5034528;28;20433;-69
2023/09/14 07:08:40;;;;;;;3.70;2.60;;;22.20;66.00;;;;;;5027514;28;20459;-69
2023/09/14 07:11:28;;;;;;;2.97;2.67;;;22.30;66.10;;;;;;5028430;28;20467;-69
2023/09/14 07:14:14;;;;;;;4.77;3.60;;;22.30;66.10;;;;;;5029313;28;20802;-69
2023/09/14 07:17:01;;;;;;;5.83;4.37;;;22.30;66.10;;;;;;5040938;28;20473;-69
2023/09/14 07:19:50;;;;;;;3.23;2.63;;;22.30;67.30;;;;;;5032146;28;20553;-69
2023/09/14 07:22:38;;;;;;;4.70;2.70;;;22.30;66.10;;;;;;5038071;28;20613;-69
2023/09/14 07:25:25;;;;;;;3.17;2.30;;;22.30;66.10;;;;;;5028703;28;20501;-69
2023/09/14 07:28:12;;;;;;;4.93;2.60;;;22.30;66.30;;;;;;5028344;28;20523;-69
2023/09/14 07:31:04;;;;;;;2.80;2.50;;;22.30;66.20;;;;;;5041853;28;20446;-69
2023/09/14 07:33:52;;;;;;;2.53;2.03;;;22.30;66.40;;;;;;5038227;28;20434;-69
2023/09/14 07:36:40;;;;;;;3.03;2.37;;;22.30;66.50;;;;;;5027125;28;20470;-69
2023/09/14 07:39:27;;;;;;;2.67;2.23;;;22.30;66.70;;;;;;5033755;28;20589;-69
2023/09/14 07:42:14;;;;;;;2.90;1.93;;;22.30;66.70;;;;;;5032247;28;20474;-69
2023/09/14 07:45:01;;;;;;;2.53;2.33;;;22.30;66.80;;;;;;5038267;28;20478;-69
2023/09/14 07:47:48;;;;;;;2.30;2.00;;;22.30;66.90;;;;;;5026832;28;20455;-69
2023/09/14 07:50:39;;;;;;;2.70;2.00;;;22.30;66.90;;;;;;5029737;28;20573;-69
2023/09/14 07:53:28;;;;;;;2.50;2.30;;;22.20;66.90;;;;;;5029452;28;20522;-69
2023/09/14 07:56:15;;;;;;;4.93;2.17;;;22.30;67.00;;;;;;5035527;28;20529;-68
2023/09/14 07:59:02;;;;;;;3.90;2.47;;;22.30;67.00;;;;;;5034384;28;20467;-70
2023/09/14 08:01:48;;;;;;;2.87;2.40;;;22.30;67.00;;;;;;5036940;28;20466;-69
2023/09/14 08:04:35;;;;;;;2.83;2.40;;;22.20;66.90;;;;;;5035470;28;21057;-69
2023/09/14 08:07:22;;;;;;;3.90;2.83;;;22.30;67.00;;;;;;5039396;28;20544;-69
2023/09/14 08:10:11;;;;;;;4.00;3.07;;;22.20;66.70;;;;;;5035389;28;20458;-69
2023/09/14 08:13:00;;;;;;;3.70;3.00;;;22.20;66.60;;;;;;5029830;28;20491;-68
2023/09/14 08:15:47;;;;;;;3.87;3.47;;;22.20;66.70;;;;;;5033190;28;21060;-68
2023/09/14 08:18:34;;;;;;;3.57;3.00;;;22.30;66.90;;;;;;5030204;28;20474;-69
2023/09/14 08:21:21;;;;;;;3.10;2.70;;;22.20;66.90;;;;;;5039364;28;20474;-70
2023/09/14 08:24:07;;;;;;;3.27;2.83;;;22.20;66.90;;;;;;5032110;28;20989;-70
2023/09/14 08:26:57;;;;;;;4.07;3.00;;;22.20;67.10;;;;;;5032958;28;20965;-69
2023/09/14 08:29:44;;;;;;;3.27;2.90;;;22.20;68.30;;;;;;5037653;28;20463;-69
2023/09/14 08:32:31;;;;;;;3.90;3.33;;;22.20;67.00;;;;;;5026594;28;20513;-67
2023/09/14 08:35:23;;;;;;;4.13;3.20;;;22.20;67.00;;;;;;5039083;28;20457;-68
2023/09/14 08:38:10;;;;;;;4.07;2.80;;;22.20;67.20;;;;;;5033377;28;20431;-69
2023/09/14 08:41:00;;;;;;;4.40;2.57;;;22.20;67.20;;;;;;5031915;28;20465;-69
2023/09/14 08:43:49;;;;;;;3.70;2.83;;;22.20;67.30;;;;;;5034747;28;20792;-68
2023/09/14 08:46:36;;;;;;;2.80;2.20;;;22.20;67.20;;;;;;5028897;28;20837;-69
2023/09/14 08:49:27;;;;;;;4.43;2.60;;;22.20;67.30;;;;;;5034927;28;20474;-69
2023/09/14 08:52:18;;;;;;;2.97;2.60;;;22.20;67.30;;;;;;5028055;28;20774;-67
2023/09/14 08:55:06;;;;;;;2.63;2.43;;;22.20;67.20;;;;;;5032987;28;20943;-70
2023/09/14 08:57:54;;;;;;;4.23;2.30;;;22.20;67.10;;;;;;5032704;28;20458;-69
2023/09/14 09:00:44;;;;;;;3.67;3.10;;;22.20;67.10;;;;;;5028717;28;21003;-69
2023/09/14 09:03:33;;;;;;;3.00;2.40;;;22.20;67.10;;;;;;5032996;28;20448;-69
2023/09/14 09:06:21;;;;;;;3.90;3.10;;;22.20;67.10;;;;;;5037134;28;20466;-69
2023/09/14 09:09:09;;;;;;;2.63;2.40;;;22.20;67.10;;;;;;5036154;28;20581;-69
2023/09/14 09:11:56;;;;;;;3.50;3.17;;;22.20;67.20;;;;;;5031308;28;20480;-69
2023/09/14 09:14:46;;;;;;;8.10;6.80;;;22.20;67.30;;;;;;5040369;28;20524;-68
2023/09/14 09:17:39;;;;;;;6.77;5.63;;;22.20;66.00;;;;;;5030160;28;20684;-69
2023/09/14 09:20:27;;;;;;;6.53;4.93;;;22.10;65.90;;;;;;5031335;28;21014;-68
2023/09/14 09:23:17;;;;;;;4.43;3.80;;;22.10;65.80;;;;;;5042641;28;20443;-69
2023/09/14 09:26:04;;;;;;;4.10;3.53;;;22.10;66.40;;;;;;5023396;28;20479;-69
2023/09/14 09:28:51;;;;;;;5.40;3.40;;;22.10;66.50;;;;;;5037120;28;20462;-69
2023/09/14 09:31:42;;;;;;;4.93;3.70;;;22.10;66.70;;;;;;5037463;28;20576;-69
2023/09/14 09:34:34;;;;;;;3.20;2.90;;;22.10;66.80;;;;;;5039521;28;20454;-69
2023/09/14 09:37:24;;;;;;;3.57;3.23;;;22.10;66.90;;;;;;5031004;28;20454;-68
2023/09/14 09:40:13;;;;;;;4.30;2.97;;;22.10;66.80;;;;;;5028030;28;20458;-70
2023/09/14 09:43:04;;;;;;;3.20;2.90;;;22.10;66.90;;;;;;5029568;28;20534;-69
2023/09/14 09:45:51;;;;;;;4.60;3.30;;;22.10;66.90;;;;;;5024233;28;20537;-70
2023/09/14 09:48:38;;;;;;;3.03;2.70;;;22.10;66.70;;;;;;5030835;28;20548;-70
2023/09/14 09:51:26;;;;;;;3.67;2.73;;;22.10;66.90;;;;;;5034206;28;20487;-70
2023/09/14 09:54:13;;;;;;;4.80;3.60;;;22.10;67.00;;;;;;5032970;28;20450;-69
2023/09/14 09:57:03;;;;;;;3.97;2.63;;;22.10;67.10;;;;;;5038446;28;20485;-69
2023/09/14 09:59:51;;;;;;;3.93;2.77;;;22.10;67.00;;;;;;5031169;28;20475;-69
2023/09/14 10:02:37;;;;;;;2.83;2.60;;;22.10;67.00;;;;;;5038049;28;20998;-70
2023/09/14 10:05:29;;;;;;;4.37;2.90;;;22.10;67.10;;;;;;5030286;28;20471;-68
2023/09/14 10:08:21;;;;;;;3.37;2.80;;;22.10;67.20;;;;;;5033323;28;20602;-69
2023/09/14 10:11:09;;;;;;;2.93;2.50;;;22.10;67.10;;;;;;5039487;28;20489;-72
2023/09/14 10:13:58;;;;;;;2.87;2.50;;;22.10;67.30;;;;;;5039799;28;20520;-73
2023/09/14 10:16:49;;;;;;;3.33;3.03;;;22.10;67.30;;;;;;5034803;28;20470;-73
2023/09/14 10:19:36;;;;;;;3.73;2.70;;;22.10;67.30;;;;;;5034130;28;20458;-73
2023/09/14 10:22:25;;;;;;;3.20;2.63;;;22.10;67.30;;;;;;5031112;28;20469;-71
2023/09/14 10:25:13;;;;;;;3.27;2.97;;;22.10;67.30;;;;;;5038614;28;20433;-73
2023/09/14 10:28:03;;;;;;;5.13;3.53;;;22.10;67.30;;;;;;5040774;28;20470;-73
2023/09/14 10:30:52;;;;;;;4.33;2.67;;;22.10;67.30;;;;;;5029322;28;20513;-73
2023/09/14 10:33:42;;;;;;;3.20;2.90;;;22.10;67.40;;;;;;5028367;28;20466;-73
2023/09/14 10:36:31;;;;;;;3.40;2.97;;;22.10;67.40;;;;;;5039877;28;20585;-73
2023/09/14 10:39:22;;;;;;;2.83;2.50;;;22.10;67.40;;;;;;5035571;28;20462;-73
2023/09/14 10:42:11;;;;;;;3.50;2.90;;;22.10;67.40;;;;;;5035808;28;20570;-73
2023/09/14 10:44:58;;;;;;;2.77;2.20;;;22.10;67.40;;;;;;5039440;28;20446;-73
2023/09/14 10:47:49;;;;;;;3.40;3.00;;;22.00;67.30;;;;;;5031860;28;20442;-71
2023/09/14 10:50:37;;;;;;;3.50;3.00;;;22.00;68.70;;;;;;5032193;28;20455;-73
2023/09/14 10:53:24;;;;;;;3.03;2.53;;;22.00;67.40;;;;;;5034961;28;20823;-73
2023/09/14 10:56:21;;;;;;;3.53;2.87;;;22.10;67.60;;;;;;5047108;28;20537;-73
2023/09/14 10:59:09;;;;;;;4.30;3.40;;;22.00;67.40;;;;;;5033820;28;20465;-73
2023/09/14 11:01:56;;;;;;;4.30;2.30;;;22.10;67.50;;;;;;5033854;28;21006;-73
2023/09/14 11:05:13;;;;;;;3.20;2.63;;;22.00;67.40;;;;;;5038788;28;20484;-72
2023/09/14 11:08:03;;;;;;;3.83;3.53;;;22.00;67.30;;;;;;5041416;28;20762;-72
2023/09/14 11:10:55;;;;;;;3.17;2.87;;;22.10;67.30;;;;;;5027562;28;20474;-73
2023/09/14 11:13:42;;;;;;;2.97;2.70;;;22.00;67.50;;;;;;5029547;28;20565;-73
2023/09/14 11:16:42;;;;;;;2.73;2.40;;;22.10;67.60;;;;;;5034565;28;20487;-72
2023/09/14 11:19:48;;;;;;;3.10;2.73;;;22.00;67.70;;;;;;5032904;28;20491;-72
2023/09/14 11:22:43;;;;;;;2.67;2.33;;;22.10;67.50;;;;;;5031447;28;20474;-72
2023/09/14 11:25:33;;;;;;;3.07;2.77;;;22.00;67.30;;;;;;5040606;28;20463;-72
2023/09/14 11:28:36;;;;;;;2.60;2.40;;;22.00;67.30;;;;;;5031446;28;20808;-72
2023/09/14 11:31:31;;;;;;;3.20;2.90;;;22.00;67.40;;;;;;5039792;28;20481;-72
2023/09/14 11:34:39;;;;;;;2.80;2.50;;;22.00;67.40;;;;;;5027586;28;20474;-72
2023/09/14 11:37:31;;;;;;;2.60;2.37;;;22.00;67.20;;;;;;5030917;28;20828;-72
2023/09/14 11:40:31;;;;;;;2.60;2.40;;;22.00;67.30;;;;;;5043056;28;20462;-72
2023/09/14 11:43:25;;;;;;;3.57;2.30;;;22.00;67.10;;;;;;5029402;28;20458;-72
2023/09/14 11:46:32;;;;;;;2.60;2.37;;;22.00;67.30;;;;;;5036577;28;20481;-72
2023/09/14 11:49:23;;;;;;;2.33;2.03;;;22.10;67.50;;;;;;5037039;28;20462;-72
2023/09/14 11:52:11;;;;;;;2.63;2.43;;;22.00;67.60;;;;;;5039534;28;20478;-72
2023/09/14 11:54:58;;;;;;;2.60;2.40;;;22.00;67.40;;;;;;5034125;28;20444;-72
2023/09/14 11:57:46;;;;;;;2.83;2.57;;;22.00;67.30;;;;;;5035682;28;21030;-72
2023/09/14 12:00:38;;;;;;;3.03;2.33;;;22.00;67.30;;;;;;5041150;28;20460;-73
2023/09/14 12:03:27;;;;;;;2.23;2.03;;;22.00;67.40;;;;;;5029255;28;20589;-73
2023/09/14 12:06:14;;;;;;;2.60;2.40;;;22.00;67.50;;;;;;5033460;28;20482;-73
2023/09/14 12:09:01;;;;;;;2.93;2.63;;;22.10;67.70;;;;;;5026937;28;20466;-72
2023/09/14 12:11:49;;;;;;;2.20;1.93;;;22.00;67.40;;;;;;5026160;28;20610;-73
2023/09/14 12:14:37;;;;;;;2.60;2.27;;;22.10;67.50;;;;;;5033423;28;20664;-72
2023/09/14 12:17:25;;;;;;;2.90;1.97;;;22.10;67.60;;;;;;5034572;28;20467;-72
2023/09/14 12:20:15;;;;;;;2.40;2.00;;;22.00;67.40;;;;;;5037215;28;20467;-72
2023/09/14 12:23:03;;;;;;;2.20;2.00;;;22.00;67.20;;;;;;5031760;28;20936;-72
2023/09/14 12:25:50;;;;;;;2.67;2.30;;;22.10;67.30;;;;;;5025852;28;20602;-72
2023/09/14 12:28:37;;;;;;;3.00;2.70;;;22.10;67.30;;;;;;5031688;28;20462;-72
2023/09/14 12:31:27;;;;;;;2.97;2.77;;;22.10;67.40;;;;;;5037113;28;20839;-72
2023/09/14 12:34:14;;;;;;;2.47;2.27;;;22.00;67.40;;;;;;5027131;28;20446;-72
2023/09/14 12:37:03;;;;;;;2.77;1.90;;;22.00;67.40;;;;;;5028743;28;20470;-72
2023/09/14 12:39:51;;;;;;;3.93;3.37;;;22.10;67.30;;;;;;5031406;28;20670;-69
2023/09/14 12:42:42;;;;;;;4.33;3.93;;;22.00;62.50;;;;;;5026391;28;20495;-68
2023/09/14 12:45:29;;;;;;;3.60;3.30;;;22.00;61.40;;;;;;5033526;28;20443;-68
2023/09/14 12:48:17;;;;;;;6.60;3.10;;;21.90;61.80;;;;;;5047185;28;20540;-69
2023/09/14 12:51:05;;;;;;;3.73;3.33;;;21.90;61.80;;;;;;5038259;28;20524;-68
2023/09/14 12:53:56;;;;;;;3.90;3.30;;;21.90;62.20;;;;;;5037214;28;20501;-68
2023/09/14 12:56:45;;;;;;;3.40;2.80;;;21.90;62.90;;;;;;5032417;28;20463;-69
2023/09/14 12:59:31;;;;;;;3.17;2.87;;;21.90;63.20;;;;;;5029904;28;20867;-72
2023/09/14 13:02:19;;;;;;;3.17;2.87;;;22.00;63.50;;;;;;5036870;28;21080;-72
2023/09/14 13:05:07;;;;;;;3.10;2.50;;;22.00;63.60;;;;;;5031294;28;20459;-72
2023/09/14 13:07:55;;;;;;;3.33;3.03;;;22.00;64.00;;;;;;5028836;28;20455;-72
2023/09/14 13:10:46;;;;;;;4.23;2.77;;;22.00;64.30;;;;;;5031849;28;21096;-72
2023/09/14 13:13:33;;;;;;;4.43;2.83;;;22.00;64.60;;;;;;5027462;28;20428;-72
2023/09/14 13:16:21;;;;;;;3.10;2.80;;;22.00;64.40;;;;;;5029795;28;20479;-73
2023/09/14 13:19:08;;;;;;;2.80;2.60;;;22.10;64.60;;;;;;5030810;28;20465;-72
2023/09/14 13:22:03;;;;;;;3.03;2.70;;;22.10;64.80;;;;;;5030090;28;20474;-72
2023/09/14 13:24:50;;;;;;;3.00;2.70;;;22.00;64.90;;;;;;5031115;28;20527;-72
2023/09/14 13:27:40;;;;;;;2.97;2.47;;;22.00;65.10;;;;;;5029478;28;20470;-72
2023/09/14 13:30:30;;;;;;;3.20;2.90;;;22.10;65.20;;;;;;5028811;28;20500;-72
2023/09/14 13:33:18;;;;;;;3.60;3.30;;;22.10;65.20;;;;;;5026689;28;20805;-72
2023/09/14 13:36:05;;;;;;;4.33;3.03;;;22.10;64.70;;;;;;5028596;28;20472;-72
2023/09/14 13:38:51;;;;;;;3.17;2.87;;;22.10;64.50;;;;;;5026770;28;20809;-72
2023/09/14 13:41:38;;;;;;;2.73;2.53;;;22.10;64.50;;;;;;5024482;28;20529;-72
2023/09/14 13:44:26;;;;;;;2.93;2.63;;;22.10;64.40;;;;;;5026858;28;20455;-72
2023/09/14 13:47:13;;;;;;;3.17;2.97;;;22.10;64.40;;;;;;5024105;28;20479;-72
2023/09/14 13:50:00;;;;;;;2.80;2.60;;;22.10;63.70;;;;;;5027979;28;20549;-72
2023/09/14 13:52:47;;;;;;;5.33;2.57;;;22.10;64.50;;;;;;5029152;28;20454;-72
2023/09/14 13:55:33;;;;;;;3.37;3.07;;;22.10;64.20;;;;;;5034437;28;20443;-73
2023/09/14 13:58:20;;;;;;;3.20;2.90;;;22.10;64.10;;;;;;5027824;28;20547;-72
2023/09/14 14:01:08;;;;;;;2.70;2.43;;;22.10;63.90;;;;;;5032234;28;20458;-72
2023/09/14 14:03:55;;;;;;;2.50;2.30;;;22.10;62.80;;;;;;5032839;28;20434;-72
2023/09/14 14:06:43;;;;;;;3.47;2.33;;;22.20;63.80;;;;;;5024049;28;20550;-72
2023/09/14 14:09:30;;;;;;;3.40;2.90;;;22.10;63.90;;;;;;5022402;28;20784;-72
2023/09/14 14:12:18;;;;;;;3.00;2.50;;;22.10;64.10;;;;;;5033328;28;20986;-72
2023/09/14 14:15:06;;;;;;;3.10;2.80;;;22.20;64.90;;;;;;5052298;28;20493;-73
2023/09/14 14:17:57;;;;;;;2.60;2.40;;;22.20;62.90;;;;;;5023996;28;20448;-72
2023/09/14 14:20:44;;;;;;;2.83;2.57;;;22.20;64.40;;;;;;5028779;28;20553;-72
2023/09/14 14:23:31;;;;;;;3.17;2.87;;;22.20;64.60;;;;;;5029127;28;20451;-72
2023/09/14 14:26:18;;;;;;;2.80;2.60;;;22.20;64.30;;;;;;5026453;28;20576;-72
2023/09/14 14:29:05;;;;;;;3.10;2.80;;;22.20;64.40;;;;;;5027782;28;20495;-72
2023/09/14 14:31:51;;;;;;;2.50;2.30;;;22.20;64.50;;;;;;5036088;28;20483;-72
2023/09/14 14:34:40;;;;;;;3.57;2.53;;;22.20;65.10;;;;;;5027348;28;20831;-72
2023/09/14 14:37:27;;;;;;;2.73;2.13;;;22.20;65.70;;;;;;5025098;28;20983;-72
2023/09/14 14:40:14;;;;;;;2.90;2.60;;;22.20;64.60;;;;;;5032558;28;20602;-72